createdAt,value
2017-04-17T00:00:04.866Z,73.10
2017-04-17T00:01:02.952Z,73.20
2017-04-17T00:02:00.342Z,73.20
2017-04-17T00:02:57.680Z,73.10
2017-04-17T00:03:55.014Z,73.20
2017-04-17T00:04:52.326Z,73.40
2017-04-17T00:05:49.801Z,73.40
2017-04-17T00:06:47.217Z,73.50
2017-04-17T00:07:44.841Z,73.60
2017-04-17T00:08:42.151Z,73.80
2017-04-17T00:09:39.437Z,73.70
2017-04-17T00:10:36.732Z,73.50
2017-04-17T00:11:34.765Z,73.10
2017-04-17T00:12:32.224Z,73.10
2017-04-17T00:13:29.542Z,73.20
2017-04-17T00:14:26.844Z,73.20
2017-04-17T00:15:24.967Z,73.40
2017-04-17T00:16:23.202Z,73.40
2017-04-17T00:17:20.596Z,73.30
2017-04-17T00:18:17.916Z,73.10
2017-04-17T00:19:15.233Z,73.20
2017-04-17T00:20:13.185Z,73.30
2017-04-17T00:21:10.585Z,72.70
2017-04-17T00:22:07.881Z,72.90
2017-04-17T00:23:06.024Z,72.70
2017-04-17T00:24:09.628Z,72.80
2017-04-17T00:25:07.091Z,73.40
2017-04-17T00:26:04.584Z,73.20
2017-04-17T00:27:01.902Z,73.40
2017-04-17T00:27:59.249Z,74.30
2017-04-17T00:28:56.630Z,73.80
2017-04-17T00:29:53.948Z,74.20
2017-04-17T00:30:51.259Z,74.40
2017-04-17T00:31:48.715Z,74.40
2017-04-17T00:32:46.953Z,74.60
2017-04-17T00:33:44.350Z,74.50
2017-04-17T00:34:41.702Z,74.50
2017-04-17T00:35:39.033Z,74.50
2017-04-17T00:36:36.352Z,74.70
2017-04-17T00:37:33.658Z,74.70
2017-04-17T00:38:31.679Z,74.50
2017-04-17T00:39:29.010Z,74.50
2017-04-17T00:40:26.341Z,74.60
2017-04-17T00:41:24.259Z,75.10
2017-04-17T00:42:22.354Z,75.50
2017-04-17T00:43:20.011Z,75.70
2017-04-17T00:44:17.419Z,75.70
2017-04-17T00:45:15.565Z,75.80
2017-04-17T00:46:12.882Z,75.70
2017-04-17T00:47:10.183Z,75.80
2017-04-17T00:48:07.503Z,76.00
2017-04-17T00:49:04.905Z,76.10
2017-04-17T00:50:02.460Z,76.30
2017-04-17T00:50:59.773Z,76.50
2017-04-17T00:51:57.090Z,76.50
2017-04-17T00:52:54.408Z,76.50
2017-04-17T00:53:51.804Z,76.60
2017-04-17T00:54:49.263Z,76.50
2017-04-17T00:55:46.590Z,76.50
2017-04-17T00:56:44.568Z,76.40
2017-04-17T00:57:41.969Z,76.70
2017-04-17T00:58:39.324Z,76.70
2017-04-17T00:59:36.655Z,76.70
2017-04-17T01:00:34.068Z,76.90
2017-04-17T01:01:31.374Z,76.90
2017-04-17T01:02:29.581Z,77.10
2017-04-17T01:03:27.000Z,77.00
2017-04-17T01:04:24.301Z,76.80
2017-04-17T01:05:21.716Z,76.90
2017-04-17T01:06:19.010Z,77.00
2017-04-17T01:07:16.322Z,77.00
2017-04-17T01:08:13.639Z,77.00
2017-04-17T01:09:11.429Z,77.00
2017-04-17T01:10:08.845Z,77.20
2017-04-17T01:11:07.567Z,77.70
2017-04-17T01:12:05.003Z,77.70
2017-04-17T01:13:02.322Z,77.60
2017-04-17T01:13:59.630Z,77.40
2017-04-17T01:14:56.914Z,77.50
2017-04-17T01:15:55.145Z,77.60
2017-04-17T01:16:52.615Z,78.00
2017-04-17T01:17:50.606Z,78.00
2017-04-17T01:18:47.912Z,77.90
2017-04-17T01:19:45.246Z,78.10
2017-04-17T01:20:42.761Z,78.20
2017-04-17T01:21:41.665Z,78.20
2017-04-17T01:22:39.036Z,78.20
2017-04-17T01:23:36.355Z,78.20
2017-04-17T01:24:34.400Z,78.60
2017-04-17T01:25:31.727Z,78.50
2017-04-17T01:26:29.657Z,78.80
2017-04-17T01:27:27.067Z,78.50
2017-04-17T01:28:24.536Z,78.50
2017-04-17T01:29:22.127Z,78.70
2017-04-17T01:30:19.470Z,78.70
2017-04-17T01:31:16.771Z,78.80
2017-04-17T01:32:14.696Z,78.90
2017-04-17T01:33:12.726Z,78.70
2017-04-17T01:34:10.083Z,78.60
2017-04-17T01:35:08.150Z,78.50
2017-04-17T01:36:05.502Z,78.40
2017-04-17T01:37:02.975Z,78.60
2017-04-17T01:38:00.278Z,78.70
2017-04-17T01:38:57.676Z,79.00
2017-04-17T01:39:54.966Z,79.10
2017-04-17T01:40:53.098Z,79.50
2017-04-17T01:41:51.300Z,79.50
2017-04-17T01:42:48.605Z,79.40
2017-04-17T01:43:46.017Z,79.40
2017-04-17T01:44:43.472Z,79.40
2017-04-17T01:45:40.770Z,79.90
2017-04-17T01:46:38.804Z,81.00
2017-04-17T01:47:36.097Z,80.90
2017-04-17T01:48:33.397Z,80.70
2017-04-17T01:49:31.471Z,79.80
2017-04-17T01:50:29.715Z,79.80
2017-04-17T01:51:27.867Z,79.40
2017-04-17T01:52:25.178Z,79.40
2017-04-17T01:53:23.218Z,79.40
2017-04-17T01:54:20.531Z,79.40
2017-04-17T01:55:17.846Z,79.70
2017-04-17T01:56:15.259Z,80.30
2017-04-17T01:57:13.523Z,80.40
2017-04-17T01:58:11.686Z,81.40
2017-04-17T01:59:10.810Z,81.20
2017-04-17T02:00:08.218Z,81.20
2017-04-17T02:01:05.549Z,81.30
2017-04-17T02:02:03.572Z,81.00
2017-04-17T02:03:00.954Z,80.70
2017-04-17T02:03:58.252Z,80.50
2017-04-17T02:04:56.322Z,80.70
2017-04-17T02:05:53.710Z,80.80
2017-04-17T02:06:51.198Z,80.80
2017-04-17T02:07:48.511Z,80.60
2017-04-17T02:08:45.815Z,80.60
2017-04-17T02:09:43.118Z,80.60
2017-04-17T02:10:41.302Z,80.40
2017-04-17T02:11:38.677Z,80.40
2017-04-17T02:12:36.013Z,80.90
2017-04-17T02:13:33.286Z,80.70
2017-04-17T02:14:30.581Z,80.50
2017-04-17T02:15:28.162Z,80.40
2017-04-17T02:16:25.446Z,80.60
2017-04-17T02:17:22.791Z,80.60
2017-04-17T02:18:20.153Z,80.30
2017-04-17T02:19:18.262Z,80.10
2017-04-17T02:20:15.601Z,80.10
2017-04-17T02:21:13.039Z,80.40
2017-04-17T02:22:10.325Z,81.20
2017-04-17T02:23:07.625Z,80.50
2017-04-17T02:24:05.681Z,80.20
2017-04-17T02:25:02.989Z,80.20
2017-04-17T02:26:01.031Z,80.50
2017-04-17T02:26:58.477Z,80.50
2017-04-17T02:27:56.533Z,80.60
2017-04-17T02:28:53.842Z,80.60
2017-04-17T02:29:51.696Z,80.40
2017-04-17T02:30:48.992Z,80.40
2017-04-17T02:31:46.341Z,80.70
2017-04-17T02:32:44.549Z,80.20
2017-04-17T02:33:41.822Z,80.20
2017-04-17T02:34:39.976Z,79.70
2017-04-17T02:35:37.312Z,79.70
2017-04-17T02:36:34.622Z,79.70
2017-04-17T02:37:31.966Z,79.60
2017-04-17T02:38:30.086Z,80.60
2017-04-17T02:39:27.407Z,79.90
2017-04-17T02:40:24.726Z,80.20
2017-04-17T02:41:22.766Z,80.50
2017-04-17T02:42:20.820Z,80.80
2017-04-17T02:43:18.204Z,80.80
2017-04-17T02:44:15.557Z,80.80
2017-04-17T02:45:12.889Z,80.70
2017-04-17T02:46:10.189Z,80.50
2017-04-17T02:47:07.482Z,80.40
2017-04-17T02:48:04.951Z,80.30
2017-04-17T02:49:03.109Z,80.50
2017-04-17T02:50:00.501Z,80.50
2017-04-17T02:50:58.531Z,80.80
2017-04-17T02:51:55.834Z,80.80
2017-04-17T02:52:53.133Z,80.60
2017-04-17T02:53:50.491Z,80.80
2017-04-17T02:54:47.829Z,80.60
2017-04-17T02:55:45.155Z,80.60
2017-04-17T02:56:42.460Z,80.80
2017-04-17T02:57:40.506Z,80.50
2017-04-17T02:58:38.011Z,80.50
2017-04-17T02:59:36.061Z,80.50
2017-04-17T03:00:33.379Z,80.50
2017-04-17T03:01:31.300Z,80.60
2017-04-17T03:02:28.601Z,80.40
2017-04-17T03:03:26.038Z,80.30
2017-04-17T03:04:24.338Z,79.90
2017-04-17T03:05:21.662Z,79.90
2017-04-17T03:06:19.029Z,79.90
2017-04-17T03:07:16.350Z,79.70
2017-04-17T03:08:13.814Z,79.20
2017-04-17T03:09:11.768Z,79.20
2017-04-17T03:10:09.266Z,79.30
2017-04-17T03:11:06.724Z,78.90
2017-04-17T03:12:04.238Z,78.60
2017-04-17T03:13:01.718Z,78.80
2017-04-17T03:13:59.043Z,78.80
2017-04-17T03:14:57.133Z,79.60
2017-04-17T03:15:54.558Z,79.60
2017-04-17T03:16:51.857Z,79.80
2017-04-17T03:17:49.315Z,80.40
2017-04-17T03:18:46.626Z,79.90
2017-04-17T03:19:44.016Z,79.70
2017-04-17T03:20:41.298Z,79.80
2017-04-17T03:21:38.621Z,79.80
2017-04-17T03:22:36.655Z,78.10
2017-04-17T03:23:34.879Z,78.10
2017-04-17T03:24:32.166Z,78.80
2017-04-17T03:25:29.561Z,79.40
2017-04-17T03:26:26.966Z,79.90
2017-04-17T03:37:04.411Z,80.30
2017-04-17T03:38:01.755Z,81.00
2017-04-17T03:38:59.054Z,81.30
2017-04-17T03:39:57.094Z,80.90
2017-04-17T03:40:55.132Z,81.20
2017-04-17T03:41:53.093Z,81.20
2017-04-17T03:42:51.157Z,81.00
2017-04-17T03:43:48.458Z,81.00
2017-04-17T03:44:45.874Z,80.90
2017-04-17T03:45:43.963Z,81.00
2017-04-17T03:46:41.430Z,81.00
2017-04-17T03:47:38.722Z,80.90
2017-04-17T03:48:36.067Z,81.00
2017-04-17T03:49:33.367Z,81.00
2017-04-17T03:50:30.675Z,80.80
2017-04-17T03:51:28.053Z,80.60
2017-04-17T03:52:25.359Z,80.60
2017-04-17T03:53:22.660Z,80.60
2017-04-17T03:54:19.968Z,80.40
2017-04-17T03:55:17.323Z,80.40
2017-04-17T03:56:14.622Z,80.60
2017-04-17T03:57:12.009Z,80.70
2017-04-17T03:58:09.302Z,80.70
2017-04-17T03:59:06.607Z,81.10
2017-04-17T04:00:03.925Z,81.00
2017-04-17T04:01:01.949Z,80.60
2017-04-17T04:01:59.308Z,80.60
2017-04-17T04:02:56.673Z,80.40
2017-04-17T04:03:54.041Z,80.70
2017-04-17T04:04:52.141Z,80.70
2017-04-17T04:05:49.470Z,80.70
2017-04-17T04:06:46.752Z,80.80
2017-04-17T04:07:44.862Z,80.80
2017-04-17T04:08:42.232Z,80.80
2017-04-17T04:09:39.533Z,81.00
2017-04-17T04:10:36.820Z,80.90
2017-04-17T04:11:34.154Z,80.80
2017-04-17T04:12:32.165Z,80.60
2017-04-17T04:13:29.441Z,80.80
2017-04-17T04:14:26.769Z,80.50
2017-04-17T04:15:24.074Z,80.40
2017-04-17T04:16:21.372Z,80.40
2017-04-17T04:17:18.762Z,80.40
2017-04-17T04:18:16.062Z,80.30
2017-04-17T04:19:13.343Z,80.20
2017-04-17T04:20:10.634Z,80.40
2017-04-17T04:21:07.940Z,80.40
2017-04-17T04:22:06.040Z,80.00
2017-04-17T04:23:03.348Z,79.90
2017-04-17T04:24:00.696Z,79.80
2017-04-17T04:24:57.998Z,79.80
2017-04-17T04:25:56.032Z,80.00
2017-04-17T04:26:53.369Z,80.00
2017-04-17T04:27:51.481Z,79.50
2017-04-17T04:28:48.766Z,79.50
2017-04-17T04:29:46.059Z,79.70
2017-04-17T04:30:43.376Z,79.80
2017-04-17T04:31:40.660Z,79.80
2017-04-17T04:32:38.764Z,79.70
2017-04-17T04:33:36.070Z,79.70
2017-04-17T04:34:34.274Z,79.70
2017-04-17T04:35:31.581Z,79.80
2017-04-17T04:36:29.621Z,79.80
2017-04-17T04:37:26.986Z,79.80
2017-04-17T04:38:25.126Z,79.80
2017-04-17T04:39:22.433Z,79.80
2017-04-17T04:40:19.741Z,79.90
2017-04-17T04:41:17.047Z,80.00
2017-04-17T04:42:14.377Z,80.20
2017-04-17T04:43:11.748Z,80.50
2017-04-17T04:44:09.129Z,79.80
2017-04-17T04:45:06.497Z,80.10
2017-04-17T04:46:03.789Z,80.10
2017-04-17T04:47:01.094Z,80.30
2017-04-17T04:47:58.389Z,80.20
2017-04-17T04:48:55.723Z,80.20
2017-04-17T04:49:53.083Z,80.30
2017-04-17T04:50:50.389Z,80.10
2017-04-17T04:51:47.737Z,79.90
2017-04-17T04:52:45.058Z,80.10
2017-04-17T04:53:42.401Z,80.10
2017-04-17T04:54:39.780Z,79.90
2017-04-17T04:55:37.837Z,80.00
2017-04-17T04:56:35.194Z,79.90
2017-04-17T04:57:32.488Z,80.20
2017-04-17T04:58:29.794Z,80.10
2017-04-17T04:59:27.835Z,80.10
2017-04-17T05:00:25.230Z,80.10
2017-04-17T05:01:22.540Z,80.40
2017-04-17T05:02:19.834Z,80.40
2017-04-17T05:03:17.204Z,80.20
2017-04-17T05:04:15.370Z,80.20
2017-04-17T05:05:13.282Z,80.50
2017-04-17T05:06:10.607Z,80.20
2017-04-17T05:07:07.993Z,80.40
2017-04-17T05:08:05.289Z,80.40
2017-04-17T05:09:02.695Z,80.60
2017-04-17T05:10:00.098Z,80.70
2017-04-17T05:10:57.400Z,80.40
2017-04-17T05:11:54.675Z,80.50
2017-04-17T05:12:52.011Z,80.70
2017-04-17T05:13:49.321Z,80.90
2017-04-17T05:14:46.635Z,81.40
2017-04-17T05:15:44.074Z,81.30
2017-04-17T05:16:42.105Z,80.90
2017-04-17T05:17:39.401Z,80.90
2017-04-17T05:18:37.441Z,80.80
2017-04-17T05:19:35.134Z,80.80
2017-04-17T05:20:32.449Z,79.40
2017-04-17T05:21:29.891Z,80.00
2017-04-17T05:22:27.185Z,80.20
2017-04-17T05:23:24.477Z,80.40
2017-04-17T05:24:21.766Z,80.70
2017-04-17T05:25:19.065Z,81.50
2017-04-17T05:26:17.203Z,80.90
2017-04-17T05:27:15.523Z,80.90
2017-04-17T05:28:12.825Z,80.60
2017-04-17T05:29:10.138Z,80.70
2017-04-17T05:30:08.186Z,80.90
2017-04-17T05:31:05.670Z,80.90
2017-04-17T05:32:03.228Z,80.80
2017-04-17T05:33:00.541Z,80.80
2017-04-17T05:33:57.852Z,80.80
2017-04-17T05:34:55.185Z,80.50
2017-04-17T05:35:52.497Z,80.60
2017-04-17T05:36:49.928Z,80.60
2017-04-17T05:37:47.227Z,80.70
2017-04-17T05:38:44.541Z,80.50
2017-04-17T05:39:41.833Z,80.80
2017-04-17T05:40:39.125Z,81.70
2017-04-17T05:41:36.417Z,80.90
2017-04-17T05:42:34.190Z,81.00
2017-04-17T05:43:31.510Z,80.80
2017-04-17T05:44:29.607Z,81.00
2017-04-17T05:45:27.693Z,80.70
2017-04-17T05:46:25.754Z,80.60
2017-04-17T05:47:23.135Z,80.60
2017-04-17T05:48:20.445Z,80.60
2017-04-17T05:49:17.970Z,80.50
2017-04-17T05:50:15.310Z,80.60
2017-04-17T05:51:12.641Z,80.70
2017-04-17T05:52:10.031Z,81.00
2017-04-17T05:53:07.478Z,80.90
2017-04-17T05:54:04.773Z,80.50
2017-04-17T05:55:02.078Z,80.60
2017-04-17T05:55:59.380Z,80.10
2017-04-17T05:56:56.727Z,80.20
2017-04-17T05:57:54.039Z,80.10
2017-04-17T05:58:51.398Z,80.20
2017-04-17T05:59:48.781Z,80.20
2017-04-17T06:00:46.081Z,80.30
2017-04-17T06:01:43.398Z,80.10
2017-04-17T06:02:40.773Z,79.70
2017-04-17T06:03:38.163Z,79.60
2017-04-17T06:04:36.223Z,79.40
2017-04-17T06:05:33.550Z,79.30
2017-04-17T06:06:33.237Z,79.10
2017-04-17T06:07:32.274Z,79.10
2017-04-17T06:08:33.140Z,78.50
2017-04-17T06:09:32.465Z,78.50
2017-04-17T06:10:31.498Z,78.50
2017-04-17T06:11:31.449Z,78.50
2017-04-17T06:12:30.393Z,78.50
2017-04-17T06:13:29.388Z,78.20
2017-04-17T06:14:28.722Z,78.00
2017-04-17T06:15:27.751Z,78.10
2017-04-17T06:16:26.731Z,77.40
2017-04-17T06:17:25.940Z,77.60
2017-04-17T06:18:25.102Z,77.30
2017-04-17T06:19:24.894Z,76.90
2017-04-17T06:20:24.686Z,76.40
2017-04-17T06:21:24.737Z,76.50
2017-04-17T06:22:23.792Z,76.50
2017-04-17T06:23:22.782Z,76.50
2017-04-17T06:24:22.285Z,76.90
2017-04-17T06:25:21.998Z,76.30
2017-04-17T06:26:20.999Z,76.30
2017-04-17T06:27:20.244Z,76.10
2017-04-17T06:28:19.526Z,75.00
2017-04-17T06:38:57.620Z,73.90
2017-04-17T06:39:54.997Z,77.20
2017-04-17T06:40:52.352Z,77.80
2017-04-17T06:41:50.297Z,77.30
2017-04-17T06:42:47.617Z,77.60
2017-04-17T06:43:45.983Z,77.10
2017-04-17T06:44:43.334Z,76.20
2017-04-17T06:45:40.674Z,75.60
2017-04-17T06:46:38.009Z,75.60
2017-04-17T06:47:35.317Z,75.40
2017-04-17T06:48:32.627Z,75.40
2017-04-17T06:49:30.056Z,75.10
2017-04-17T07:02:01.280Z,77.80
2017-04-17T07:03:33.916Z,77.60
2017-04-17T07:04:31.340Z,75.70
2017-04-17T07:05:28.746Z,74.60
2017-04-17T07:06:26.657Z,74.90
2017-04-17T07:07:24.163Z,75.80
2017-04-17T07:08:21.652Z,77.00
2017-04-17T07:09:19.786Z,77.90
2017-04-17T07:10:17.147Z,77.80
2017-04-17T07:11:16.057Z,76.30
2017-04-17T07:12:14.241Z,76.80
2017-04-17T07:13:12.520Z,76.60
2017-04-17T07:14:10.689Z,76.60
2017-04-17T07:15:08.717Z,77.30
2017-04-17T07:16:06.107Z,77.00
2017-04-17T07:17:03.450Z,75.50
2017-04-17T07:18:00.820Z,76.60
2017-04-17T07:18:58.330Z,76.20
2017-04-17T07:19:55.716Z,75.90
2017-04-17T07:20:53.246Z,76.00
2017-04-17T07:21:50.602Z,76.20
2017-04-17T07:22:47.995Z,76.90
2017-04-17T07:23:45.432Z,75.70
2017-04-17T07:24:43.814Z,76.70
2017-04-17T07:25:41.927Z,76.70
2017-04-17T07:26:39.274Z,76.70
2017-04-17T07:27:37.658Z,77.10
2017-04-17T07:28:35.914Z,77.50
2017-04-17T07:29:33.270Z,78.40
2017-04-17T07:30:30.707Z,78.10
2017-04-17T07:31:28.171Z,76.30
2017-04-17T07:32:25.519Z,76.00
2017-04-17T07:33:22.967Z,76.20
2017-04-17T07:34:20.323Z,77.40
2017-04-17T07:35:18.268Z,77.80
2017-04-17T07:36:15.615Z,78.30
2017-04-17T07:37:13.539Z,77.20
2017-04-17T07:38:10.862Z,76.40
2017-04-17T07:39:08.274Z,76.20
2017-04-17T07:40:05.670Z,76.50
2017-04-17T07:41:03.045Z,74.90
2017-04-17T07:42:00.457Z,76.40
2017-04-17T07:42:57.822Z,76.20
2017-04-17T07:43:56.874Z,76.10
2017-04-17T07:44:54.228Z,76.10
2017-04-17T07:45:51.661Z,76.70
2017-04-17T07:46:49.097Z,76.90
2017-04-17T07:47:47.243Z,76.00
2017-04-17T07:48:44.644Z,76.00
2017-04-17T07:49:42.058Z,74.60
2017-04-17T07:50:39.448Z,75.20
2017-04-17T07:51:36.765Z,76.50
2017-04-17T07:52:35.606Z,76.80
2017-04-17T07:53:33.050Z,76.30
2017-04-17T07:54:31.825Z,74.70
2017-04-17T07:55:29.846Z,74.70
2017-04-17T07:56:27.237Z,74.80
2017-04-17T07:57:24.634Z,74.90
2017-04-17T07:58:22.010Z,75.10
2017-04-17T07:59:19.390Z,75.00
2017-04-17T08:00:17.798Z,75.90
2017-04-17T08:01:15.972Z,75.90
2017-04-17T08:02:14.211Z,76.00
2017-04-17T08:03:11.586Z,76.00
2017-04-17T08:04:09.055Z,73.90
2017-04-17T08:05:06.622Z,74.60
2017-04-17T08:06:04.898Z,70.70
2017-04-17T08:07:02.253Z,70.50
2017-04-17T08:08:00.378Z,72.60
2017-04-17T08:08:57.750Z,72.50
2017-04-17T08:09:55.974Z,73.30
2017-04-17T08:10:54.310Z,74.90
2017-04-17T08:11:52.487Z,74.80
2017-04-17T08:12:50.282Z,75.00
2017-04-17T08:13:47.934Z,75.30
2017-04-17T08:14:45.681Z,73.20
2017-04-17T08:15:43.480Z,72.70
2017-04-17T08:16:41.407Z,69.60
2017-04-17T08:17:40.113Z,70.50
2017-04-17T08:18:37.838Z,72.50
2017-04-17T08:19:35.580Z,72.00
2017-04-17T08:20:33.234Z,73.10
2017-04-17T08:21:31.785Z,74.20
2017-04-17T08:22:30.607Z,71.30
2017-04-17T08:23:28.468Z,73.00
2017-04-17T08:24:26.219Z,72.90
2017-04-17T08:25:24.587Z,69.30
2017-04-17T08:26:22.363Z,69.30
2017-04-17T08:27:20.822Z,69.60
2017-04-17T08:28:18.723Z,69.60
2017-04-17T08:29:16.478Z,70.20
2017-04-17T08:30:14.348Z,70.40
2017-04-17T08:31:12.408Z,69.00
2017-04-17T08:32:10.428Z,70.00
2017-04-17T08:33:08.286Z,71.20
2017-04-17T08:34:05.665Z,71.60
2017-04-17T08:35:05.592Z,68.80
2017-04-17T08:36:03.411Z,67.00
2017-04-17T08:37:00.867Z,69.10
2017-04-17T08:37:58.252Z,67.60
2017-04-17T08:38:55.625Z,65.90
2017-04-17T08:39:52.979Z,66.00
2017-04-17T08:40:51.205Z,65.20
2017-04-17T08:41:49.400Z,66.50
2017-04-17T08:42:46.990Z,66.50
2017-04-17T08:43:45.002Z,69.10
2017-04-17T08:44:43.086Z,66.50
2017-04-17T08:45:40.809Z,66.80
2017-04-17T08:46:38.777Z,66.40
2017-04-17T08:47:37.630Z,66.70
2017-04-17T08:48:36.096Z,67.70
2017-04-17T08:49:35.299Z,66.60
2017-04-17T08:50:33.610Z,66.60
2017-04-17T08:51:31.535Z,65.50
2017-04-17T08:52:29.460Z,67.40
2017-04-17T08:53:28.329Z,67.20
2017-04-17T08:54:26.466Z,67.60
2017-04-17T08:55:24.580Z,67.10
2017-04-17T08:56:22.001Z,67.10
2017-04-17T08:57:19.487Z,69.20
2017-04-17T08:58:16.959Z,70.30
2017-04-17T08:59:15.665Z,70.70
2017-04-17T09:00:13.114Z,70.80
2017-04-17T09:01:10.501Z,71.30
2017-04-17T09:02:08.014Z,71.30
2017-04-17T09:03:05.411Z,71.00
2017-04-17T09:04:05.201Z,72.10
2017-04-17T09:05:04.773Z,70.50
2017-04-17T09:06:05.040Z,70.40
2017-04-17T09:07:02.557Z,70.00
2017-04-17T09:07:59.957Z,70.50
2017-04-17T09:08:57.363Z,69.80
2017-04-17T09:09:55.479Z,70.10
2017-04-17T09:10:52.991Z,70.10
2017-04-17T09:11:52.894Z,70.30
2017-04-17T09:12:50.412Z,68.00
2017-04-17T09:13:47.759Z,70.10
2017-04-17T09:14:45.124Z,73.30
2017-04-17T09:15:42.510Z,70.20
2017-04-17T09:16:39.919Z,70.00
2017-04-17T09:17:38.026Z,66.70
2017-04-17T09:18:36.159Z,66.70
2017-04-17T09:19:33.609Z,68.10
2017-04-17T09:20:31.023Z,66.10
2017-04-17T09:21:28.433Z,65.70
2017-04-17T09:22:25.818Z,65.80
2017-04-17T09:23:24.000Z,64.10
2017-04-17T09:24:21.334Z,63.90
2017-04-17T09:25:19.385Z,66.70
2017-04-17T09:26:17.491Z,64.20
2017-04-17T09:27:16.298Z,64.10
2017-04-17T09:28:16.036Z,69.30
2017-04-17T09:29:15.057Z,69.40
2017-04-17T09:30:15.738Z,66.20
2017-04-17T09:31:14.648Z,66.20
2017-04-17T09:32:13.740Z,66.90
2017-04-17T09:33:12.777Z,65.70
2017-04-17T09:34:12.525Z,55.90
2017-04-17T09:35:11.584Z,55.80
2017-04-17T09:36:11.294Z,56.30
2017-04-17T09:37:10.487Z,56.30
2017-04-17T09:38:09.567Z,57.30
2017-04-17T09:39:08.891Z,56.80
2017-04-17T09:40:09.174Z,56.50
2017-04-17T09:41:09.952Z,59.40
2017-04-17T09:42:09.881Z,60.20
2017-04-17T09:43:08.811Z,60.10
2017-04-17T09:44:08.809Z,59.20
2017-04-17T09:45:08.045Z,58.60
2017-04-17T09:46:07.830Z,61.20
2017-04-17T09:47:07.909Z,61.70
2017-04-17T09:48:07.850Z,64.30
2017-04-17T09:49:07.993Z,64.40
2017-04-17T09:50:07.517Z,66.20
2017-04-17T09:51:06.954Z,66.20
2017-04-17T09:52:05.489Z,68.10
2017-04-17T09:53:05.344Z,65.50
2017-04-17T09:54:04.350Z,64.40
2017-04-17T09:55:03.485Z,63.00
2017-04-17T09:56:03.400Z,61.80
2017-04-17T09:57:03.194Z,58.20
2017-04-17T09:58:03.619Z,58.00
2017-04-17T09:59:03.322Z,55.10
2017-04-17T10:00:04.349Z,56.60
2017-04-17T10:01:04.241Z,57.80
2017-04-17T10:02:03.282Z,57.70
2017-04-17T10:12:41.395Z,58.40
2017-04-17T10:13:39.418Z,57.50
2017-04-17T10:14:36.821Z,58.80
2017-04-17T10:15:34.176Z,55.60
2017-04-17T10:16:32.182Z,54.10
2017-04-17T10:17:30.916Z,52.60
2017-04-17T10:18:28.346Z,52.30
2017-04-17T10:19:26.121Z,50.20
2017-04-17T10:20:23.494Z,49.20
2017-04-17T10:21:20.867Z,53.80
2017-04-17T10:22:18.222Z,52.20
2017-04-17T10:23:15.598Z,55.40
2017-04-17T10:24:13.076Z,54.30
2017-04-17T10:25:10.454Z,51.20
2017-04-17T10:26:08.678Z,50.80
2017-04-17T10:27:06.110Z,50.90
2017-04-17T10:28:04.415Z,54.00
2017-04-17T10:29:02.600Z,53.50
2017-04-17T10:30:00.729Z,52.10
2017-04-17T10:30:58.112Z,52.10
2017-04-17T10:31:55.470Z,52.90
2017-04-17T10:32:52.902Z,52.90
2017-04-17T10:33:51.194Z,54.40
2017-04-17T10:34:49.422Z,52.30
2017-04-17T10:35:46.810Z,52.20
2017-04-17T10:36:44.165Z,51.90
2017-04-17T10:37:42.262Z,53.30
2017-04-17T10:38:40.368Z,48.90
2017-04-17T10:39:38.504Z,49.30
2017-04-17T10:40:35.980Z,49.30
2017-04-17T10:41:34.087Z,52.00
2017-04-17T10:42:31.954Z,51.90
2017-04-17T10:43:29.322Z,50.00
2017-04-17T10:44:26.711Z,48.30
2017-04-17T10:45:25.800Z,51.60
2017-04-17T10:46:23.317Z,51.50
2017-04-17T10:47:20.924Z,48.50
2017-04-17T10:48:19.059Z,48.10
2017-04-17T10:49:17.209Z,48.20
2017-04-17T10:50:16.468Z,45.40
2017-04-17T10:51:15.975Z,45.30
2017-04-17T10:52:13.330Z,47.90
2017-04-17T10:53:10.702Z,46.80
2017-04-17T10:54:08.201Z,44.10
2017-04-17T10:55:06.304Z,50.10
2017-04-17T10:56:03.882Z,50.00
2017-04-17T10:57:01.223Z,49.70
2017-04-17T10:57:59.343Z,43.30
2017-04-17T10:58:57.454Z,43.30
2017-04-17T10:59:55.650Z,49.50
2017-04-17T11:00:53.068Z,49.60
2017-04-17T11:01:50.390Z,44.90
2017-04-17T11:02:48.617Z,44.80
2017-04-17T11:03:46.091Z,44.40
2017-04-17T11:04:43.450Z,46.70
2017-04-17T11:05:41.638Z,44.20
2017-04-17T11:06:39.011Z,44.10
2017-04-17T11:07:36.382Z,46.00
2017-04-17T11:08:33.747Z,44.30
2017-04-17T11:09:32.612Z,43.00
2017-04-17T11:10:29.955Z,43.10
2017-04-17T11:11:27.394Z,43.50
2017-04-17T11:12:24.780Z,45.10
2017-04-17T11:13:22.776Z,43.90
2017-04-17T11:14:20.274Z,44.80
2017-04-17T11:15:18.371Z,49.70
2017-04-17T11:16:15.731Z,49.70
2017-04-17T11:17:13.180Z,48.90
2017-04-17T11:18:10.715Z,47.40
2017-04-17T11:19:08.075Z,48.30
2017-04-17T11:20:05.428Z,51.80
2017-04-17T11:21:03.594Z,42.90
2017-04-17T11:22:01.080Z,43.00
2017-04-17T11:22:58.547Z,43.20
2017-04-17T11:23:55.916Z,44.30
2017-04-17T11:24:53.278Z,47.00
2017-04-17T11:25:50.801Z,44.30
2017-04-17T11:26:48.197Z,42.60
2017-04-17T11:27:47.079Z,42.40
2017-04-17T11:28:44.438Z,41.50
2017-04-17T11:29:42.562Z,42.50
2017-04-17T11:30:40.024Z,42.50
2017-04-17T11:31:37.391Z,43.20
2017-04-17T11:32:36.570Z,41.10
2017-04-17T11:33:34.125Z,42.30
2017-04-17T11:34:31.485Z,39.70
2017-04-17T11:35:28.882Z,41.10
2017-04-17T11:36:26.307Z,42.10
2017-04-17T11:37:23.695Z,41.60
2017-04-17T11:38:22.878Z,40.60
2017-04-17T11:39:21.853Z,39.60
2017-04-17T11:40:19.306Z,39.60
2017-04-17T11:41:17.006Z,43.90
2017-04-17T11:42:14.491Z,39.10
2017-04-17T11:43:13.349Z,44.60
2017-04-17T11:44:12.148Z,45.10
2017-04-17T11:45:09.516Z,45.10
2017-04-17T11:46:08.134Z,43.60
2017-04-17T11:47:05.490Z,43.60
2017-04-17T11:48:03.183Z,40.60
2017-04-17T11:49:00.693Z,39.30
2017-04-17T11:49:58.244Z,41.30
2017-04-17T11:50:55.727Z,38.70
2017-04-17T11:51:53.317Z,38.80
2017-04-17T11:52:51.981Z,39.40
2017-04-17T11:53:49.402Z,40.60
2017-04-17T11:54:48.135Z,43.80
2017-04-17T11:55:45.697Z,43.60
2017-04-17T11:56:43.093Z,42.90
2017-04-17T11:57:41.866Z,44.90
2017-04-17T11:58:39.293Z,44.90
2017-04-17T11:59:37.739Z,44.60
2017-04-17T12:00:35.147Z,44.60
2017-04-17T12:01:32.530Z,44.60
2017-04-17T12:02:31.272Z,44.60
2017-04-17T12:03:28.685Z,44.60
2017-04-17T12:04:26.337Z,46.60
2017-04-17T12:05:23.788Z,45.60
2017-04-17T12:06:21.153Z,45.50
2017-04-17T12:07:18.554Z,45.20
2017-04-17T12:08:16.025Z,45.70
2017-04-17T12:09:13.404Z,43.80
2017-04-17T12:10:12.822Z,42.20
2017-04-17T12:11:13.111Z,41.90
2017-04-17T12:12:15.068Z,40.00
2017-04-17T12:13:18.411Z,40.00
2017-04-17T12:14:17.608Z,40.10
2017-04-17T12:15:21.753Z,41.90
2017-04-17T12:16:19.550Z,43.60
2017-04-17T12:17:18.252Z,46.00
2017-04-17T12:18:16.554Z,45.90
2017-04-17T12:19:13.951Z,45.80
2017-04-17T12:20:12.046Z,42.50
2017-04-17T12:21:10.016Z,42.30
2017-04-17T12:22:08.219Z,42.50
2017-04-17T12:23:05.602Z,42.40
2017-04-17T12:24:03.138Z,42.30
2017-04-17T12:25:00.503Z,44.10
2017-04-17T12:25:58.038Z,42.90
2017-04-17T12:26:55.763Z,40.70
2017-04-17T12:27:54.050Z,39.60
2017-04-17T12:28:51.430Z,40.50
2017-04-17T12:29:48.907Z,42.30
2017-04-17T12:30:46.646Z,39.60
2017-04-17T12:31:45.023Z,38.60
2017-04-17T12:32:43.478Z,42.30
2017-04-17T12:33:42.263Z,38.60
2017-04-17T12:34:40.817Z,39.40
2017-04-17T12:35:38.633Z,37.00
2017-04-17T12:36:36.593Z,35.20
2017-04-17T12:37:34.513Z,40.00
2017-04-17T12:38:33.027Z,37.50
2017-04-17T12:39:30.850Z,37.50
2017-04-17T12:40:28.547Z,33.10
2017-04-17T12:41:26.341Z,33.40
2017-04-17T12:42:24.721Z,36.10
2017-04-17T12:43:23.125Z,36.10
2017-04-17T12:44:20.780Z,35.20
2017-04-17T12:45:19.205Z,36.60
2017-04-17T12:46:16.837Z,36.60
2017-04-17T12:47:14.590Z,36.20
2017-04-17T12:48:13.346Z,35.30
2017-04-17T12:49:11.356Z,35.00
2017-04-17T12:50:10.145Z,33.30
2017-04-17T12:51:08.818Z,33.10
2017-04-17T12:52:06.604Z,34.10
2017-04-17T12:53:04.530Z,31.10
2017-04-17T12:54:03.022Z,33.30
2017-04-17T12:55:01.008Z,33.20
2017-04-17T12:55:58.857Z,33.30
2017-04-17T12:56:58.007Z,34.90
2017-04-17T12:57:55.905Z,34.80
2017-04-17T12:58:53.752Z,36.80
2017-04-17T12:59:52.152Z,36.50
2017-04-17T13:00:50.167Z,36.20
2017-04-17T13:01:48.830Z,32.70
2017-04-17T13:02:47.362Z,32.40
2017-04-17T13:03:45.169Z,32.30
2017-04-17T13:04:42.985Z,31.00
2017-04-17T13:05:40.673Z,35.30